sensor_id;sensor_type;location;lat;lon;timestamp;P1;durP1;ratioP1;P2;durP2;ratioP2
63693;SDS011;49839;51.798;10.954;2023-11-21T00:02:19;7.63;;;1.80;;
63693;SDS011;49839;51.798;10.954;2023-11-21T00:04:47;10.23;;;2.35;;
63693;SDS011;49839;51.798;10.954;2023-11-21T00:07:14;7.63;;;2.03;;
63693;SDS011;49839;51.798;10.954;2023-11-21T00:09:42;7.68;;;2.22;;
63693;SDS011;49839;51.798;10.954;2023-11-21T00:12:09;10.85;;;2.30;;
63693;SDS011;49839;51.798;10.954;2023-11-21T00:14:38;11.00;;;2.25;;
63693;SDS011;49839;51.798;10.954;2023-11-21T00:17:06;8.95;;;2.28;;
63693;SDS011;49839;51.798;10.954;2023-11-21T00:19:33;8.15;;;2.10;;
63693;SDS011;49839;51.798;10.954;2023-11-21T00:22:01;13.00;;;2.47;;
63693;SDS011;49839;51.798;10.954;2023-11-21T00:24:29;10.38;;;2.60;;
63693;SDS011;49839;51.798;10.954;2023-11-21T00:26:56;8.27;;;2.25;;
63693;SDS011;49839;51.798;10.954;2023-11-21T00:29:24;8.38;;;2.75;;
63693;SDS011;49839;51.798;10.954;2023-11-21T00:31:53;11.38;;;2.60;;
63693;SDS011;49839;51.798;10.954;2023-11-21T00:34:21;9.60;;;2.27;;
63693;SDS011;49839;51.798;10.954;2023-11-21T00:36:48;11.63;;;2.30;;
63693;SDS011;49839;51.798;10.954;2023-11-21T00:39:16;9.82;;;2.60;;
63693;SDS011;49839;51.798;10.954;2023-11-21T00:41:43;10.25;;;2.63;;
63693;SDS011;49839;51.798;10.954;2023-11-21T00:44:11;13.48;;;2.83;;
63693;SDS011;49839;51.798;10.954;2023-11-21T00:46:38;13.05;;;2.60;;
63693;SDS011;49839;51.798;10.954;2023-11-21T00:49:07;12.38;;;2.08;;
63693;SDS011;49839;51.798;10.954;2023-11-21T00:51:35;14.07;;;1.88;;
63693;SDS011;49839;51.798;10.954;2023-11-21T00:54:03;9.65;;;2.08;;
63693;SDS011;49839;51.798;10.954;2023-11-21T00:56:30;15.00;;;3.28;;
63693;SDS011;49839;51.798;10.954;2023-11-21T00:58:58;8.27;;;2.25;;
63693;SDS011;49839;51.798;10.954;2023-11-21T01:01:25;6.55;;;2.15;;
63693;SDS011;49839;51.798;10.954;2023-11-21T01:03:53;10.07;;;1.95;;
63693;SDS011;49839;51.798;10.954;2023-11-21T01:06:22;10.88;;;2.08;;
63693;SDS011;49839;51.798;10.954;2023-11-21T01:08:49;10.02;;;2.03;;
63693;SDS011;49839;51.798;10.954;2023-11-21T01:11:17;12.15;;;2.33;;
63693;SDS011;49839;51.798;10.954;2023-11-21T01:13:44;7.82;;;1.88;;
63693;SDS011;49839;51.798;10.954;2023-11-21T01:16:12;10.57;;;2.33;;
63693;SDS011;49839;51.798;10.954;2023-11-21T01:18:39;12.35;;;2.15;;
63693;SDS011;49839;51.798;10.954;2023-11-21T01:21:07;12.95;;;1.98;;
63693;SDS011;49839;51.798;10.954;2023-11-21T01:23:36;9.23;;;2.15;;
63693;SDS011;49839;51.798;10.954;2023-11-21T01:26:04;12.85;;;2.55;;
63693;SDS011;49839;51.798;10.954;2023-11-21T01:28:31;8.02;;;2.20;;
63693;SDS011;49839;51.798;10.954;2023-11-21T01:30:59;14.90;;;2.50;;
63693;SDS011;49839;51.798;10.954;2023-11-21T01:33:26;15.27;;;3.10;;
63693;SDS011;49839;51.798;10.954;2023-11-21T01:35:54;8.65;;;1.92;;
63693;SDS011;49839;51.798;10.954;2023-11-21T01:38:22;12.50;;;2.05;;
63693;SDS011;49839;51.798;10.954;2023-11-21T01:40:50;13.18;;;2.67;;
63693;SDS011;49839;51.798;10.954;2023-11-21T01:43:18;12.47;;;1.90;;
63693;SDS011;49839;51.798;10.954;2023-11-21T01:45:46;9.18;;;2.00;;
63693;SDS011;49839;51.798;10.954;2023-11-21T01:48:13;11.75;;;2.40;;
63693;SDS011;49839;51.798;10.954;2023-11-21T01:50:43;15.63;;;2.25;;
63693;SDS011;49839;51.798;10.954;2023-11-21T01:53:11;15.38;;;2.70;;
63693;SDS011;49839;51.798;10.954;2023-11-21T01:55:40;9.15;;;1.95;;
63693;SDS011;49839;51.798;10.954;2023-11-21T01:58:09;13.10;;;2.17;;
63693;SDS011;49839;51.798;10.954;2023-11-21T02:00:38;9.60;;;2.30;;
63693;SDS011;49839;51.798;10.954;2023-11-21T02:03:06;14.40;;;2.35;;
63693;SDS011;49839;51.798;10.954;2023-11-21T02:05:34;13.93;;;2.40;;
63693;SDS011;49839;51.798;10.954;2023-11-21T02:08:02;14.63;;;3.08;;
63693;SDS011;49839;51.798;10.954;2023-11-21T02:10:30;9.27;;;1.88;;
63693;SDS011;49839;51.798;10.954;2023-11-21T02:12:58;15.55;;;2.67;;
63693;SDS011;49839;51.798;10.954;2023-11-21T02:15:30;10.07;;;1.92;;
63693;SDS011;49839;51.798;10.954;2023-11-21T02:17:58;12.67;;;2.67;;
63693;SDS011;49839;51.798;10.954;2023-11-21T02:20:27;13.77;;;2.10;;
63693;SDS011;49839;51.798;10.954;2023-11-21T02:22:57;13.83;;;1.93;;
63693;SDS011;49839;51.798;10.954;2023-11-21T02:27:54;12.60;;;2.30;;
63693;SDS011;49839;51.798;10.954;2023-11-21T02:30:21;12.90;;;2.53;;
63693;SDS011;49839;51.798;10.954;2023-11-21T02:32:51;13.65;;;2.47;;
63693;SDS011;49839;51.798;10.954;2023-11-21T02:35:19;13.52;;;2.22;;
63693;SDS011;49839;51.798;10.954;2023-11-21T02:37:47;13.38;;;2.40;;
63693;SDS011;49839;51.798;10.954;2023-11-21T02:40:16;15.38;;;2.58;;
63693;SDS011;49839;51.798;10.954;2023-11-21T02:42:44;17.13;;;3.05;;
63693;SDS011;49839;51.798;10.954;2023-11-21T02:45:12;16.38;;;2.60;;
63693;SDS011;49839;51.798;10.954;2023-11-21T02:47:40;13.55;;;2.47;;
63693;SDS011;49839;51.798;10.954;2023-11-21T02:50:08;13.45;;;2.80;;
63693;SDS011;49839;51.798;10.954;2023-11-21T02:52:36;11.70;;;2.13;;
63693;SDS011;49839;51.798;10.954;2023-11-21T02:55:04;10.15;;;2.22;;
63693;SDS011;49839;51.798;10.954;2023-11-21T02:57:33;15.93;;;2.28;;
63693;SDS011;49839;51.798;10.954;2023-11-21T03:00:00;15.00;;;2.60;;
63693;SDS011;49839;51.798;10.954;2023-11-21T03:02:28;12.48;;;2.38;;
63693;SDS011;49839;51.798;10.954;2023-11-21T03:04:56;15.23;;;2.47;;
63693;SDS011;49839;51.798;10.954;2023-11-21T03:07:24;11.15;;;2.20;;
63693;SDS011;49839;51.798;10.954;2023-11-21T03:09:51;11.38;;;2.13;;
63693;SDS011;49839;51.798;10.954;2023-11-21T03:12:19;13.50;;;2.35;;
63693;SDS011;49839;51.798;10.954;2023-11-21T03:14:48;16.38;;;2.70;;
63693;SDS011;49839;51.798;10.954;2023-11-21T03:17:15;9.02;;;2.15;;
63693;SDS011;49839;51.798;10.954;2023-11-21T03:19:43;12.27;;;2.20;;
63693;SDS011;49839;51.798;10.954;2023-11-21T03:22:10;17.58;;;3.00;;
63693;SDS011;49839;51.798;10.954;2023-11-21T03:24:38;16.05;;;3.08;;
63693;SDS011;49839;51.798;10.954;2023-11-21T03:27:05;14.63;;;2.55;;
63693;SDS011;49839;51.798;10.954;2023-11-21T03:29:34;10.48;;;2.13;;
63693;SDS011;49839;51.798;10.954;2023-11-21T03:32:03;12.40;;;2.30;;
63693;SDS011;49839;51.798;10.954;2023-11-21T03:34:30;12.02;;;2.90;;
63693;SDS011;49839;51.798;10.954;2023-11-21T03:36:58;15.73;;;2.72;;
63693;SDS011;49839;51.798;10.954;2023-11-21T03:39:26;14.00;;;3.08;;
63693;SDS011;49839;51.798;10.954;2023-11-21T03:41:53;14.68;;;2.67;;
63693;SDS011;49839;51.798;10.954;2023-11-21T03:44:21;13.50;;;3.53;;
63693;SDS011;49839;51.798;10.954;2023-11-21T03:46:48;14.35;;;2.90;;
63693;SDS011;49839;51.798;10.954;2023-11-21T03:49:17;12.38;;;2.88;;
63693;SDS011;49839;51.798;10.954;2023-11-21T03:51:45;16.25;;;2.90;;
63693;SDS011;49839;51.798;10.954;2023-11-21T03:54:12;15.73;;;3.28;;
63693;SDS011;49839;51.798;10.954;2023-11-21T03:56:40;14.80;;;2.92;;
63693;SDS011;49839;51.798;10.954;2023-11-21T03:59:08;16.98;;;2.92;;
63693;SDS011;49839;51.798;10.954;2023-11-21T04:01:35;15.20;;;3.17;;
63693;SDS011;49839;51.798;10.954;2023-11-21T04:04:03;14.63;;;3.30;;
63693;SDS011;49839;51.798;10.954;2023-11-21T04:06:32;16.23;;;3.78;;
63693;SDS011;49839;51.798;10.954;2023-11-21T04:09:00;13.90;;;2.70;;
63693;SDS011;49839;51.798;10.954;2023-11-21T04:11:27;16.70;;;3.42;;
63693;SDS011;49839;51.798;10.954;2023-11-21T04:13:56;18.13;;;3.72;;
63693;SDS011;49839;51.798;10.954;2023-11-21T04:16:23;12.52;;;3.35;;
63693;SDS011;49839;51.798;10.954;2023-11-21T04:18:51;17.58;;;4.15;;
63693;SDS011;49839;51.798;10.954;2023-11-21T04:21:18;18.45;;;4.00;;
63693;SDS011;49839;51.798;10.954;2023-11-21T04:23:47;15.90;;;4.53;;
63693;SDS011;49839;51.798;10.954;2023-11-21T04:26:14;21.25;;;4.35;;
63693;SDS011;49839;51.798;10.954;2023-11-21T04:28:42;18.48;;;4.72;;
63693;SDS011;49839;51.798;10.954;2023-11-21T04:31:09;22.08;;;4.45;;
63693;SDS011;49839;51.798;10.954;2023-11-21T04:33:37;17.20;;;4.60;;
63693;SDS011;49839;51.798;10.954;2023-11-21T04:36:05;21.75;;;4.93;;
63693;SDS011;49839;51.798;10.954;2023-11-21T04:38:32;19.48;;;5.03;;
63693;SDS011;49839;51.798;10.954;2023-11-21T04:41:01;16.63;;;4.28;;
63693;SDS011;49839;51.798;10.954;2023-11-21T04:43:29;21.92;;;4.80;;
63693;SDS011;49839;51.798;10.954;2023-11-21T04:45:57;14.77;;;4.00;;
63693;SDS011;49839;51.798;10.954;2023-11-21T04:48:25;16.10;;;4.65;;
63693;SDS011;49839;51.798;10.954;2023-11-21T04:50:52;15.90;;;4.28;;
63693;SDS011;49839;51.798;10.954;2023-11-21T04:53:19;15.60;;;4.50;;
63693;SDS011;49839;51.798;10.954;2023-11-21T04:55:47;12.85;;;4.55;;
63693;SDS011;49839;51.798;10.954;2023-11-21T04:58:16;14.43;;;4.38;;
63693;SDS011;49839;51.798;10.954;2023-11-21T05:00:44;18.08;;;5.72;;
63693;SDS011;49839;51.798;10.954;2023-11-21T05:03:11;17.65;;;4.95;;
63693;SDS011;49839;51.798;10.954;2023-11-21T05:05:39;14.70;;;4.47;;
63693;SDS011;49839;51.798;10.954;2023-11-21T05:08:07;16.48;;;4.85;;
63693;SDS011;49839;51.798;10.954;2023-11-21T05:10:34;14.40;;;5.55;;
63693;SDS011;49839;51.798;10.954;2023-11-21T05:13:04;18.58;;;4.72;;
63693;SDS011;49839;51.798;10.954;2023-11-21T05:15:37;15.85;;;5.15;;
63693;SDS011;49839;51.798;10.954;2023-11-21T05:18:05;12.40;;;4.53;;
63693;SDS011;49839;51.798;10.954;2023-11-21T05:20:33;17.80;;;4.70;;
63693;SDS011;49839;51.798;10.954;2023-11-21T05:23:00;21.38;;;5.47;;
63693;SDS011;49839;51.798;10.954;2023-11-21T05:25:28;13.88;;;5.32;;
63693;SDS011;49839;51.798;10.954;2023-11-21T05:27:55;16.38;;;5.35;;
63693;SDS011;49839;51.798;10.954;2023-11-21T05:32:54;15.68;;;4.72;;
63693;SDS011;49839;51.798;10.954;2023-11-21T05:35:21;13.70;;;5.30;;
63693;SDS011;49839;51.798;10.954;2023-11-21T05:37:49;15.05;;;5.57;;
63693;SDS011;49839;51.798;10.954;2023-11-21T05:40:16;16.00;;;5.32;;
63693;SDS011;49839;51.798;10.954;2023-11-21T05:42:44;17.70;;;5.45;;
63693;SDS011;49839;51.798;10.954;2023-11-21T05:45:12;13.27;;;4.97;;
63693;SDS011;49839;51.798;10.954;2023-11-21T05:47:41;15.35;;;5.82;;
63693;SDS011;49839;51.798;10.954;2023-11-21T05:50:11;19.40;;;5.90;;
63693;SDS011;49839;51.798;10.954;2023-11-21T05:52:41;20.50;;;6.95;;
63693;SDS011;49839;51.798;10.954;2023-11-21T05:55:09;14.40;;;6.03;;
63693;SDS011;49839;51.798;10.954;2023-11-21T05:57:38;15.52;;;5.93;;
63693;SDS011;49839;51.798;10.954;2023-11-21T06:00:06;16.50;;;5.95;;
63693;SDS011;49839;51.798;10.954;2023-11-21T06:02:39;15.23;;;6.43;;
63693;SDS011;49839;51.798;10.954;2023-11-21T06:05:07;17.77;;;6.80;;
63693;SDS011;49839;51.798;10.954;2023-11-21T06:07:36;14.30;;;6.63;;
63693;SDS011;49839;51.798;10.954;2023-11-21T06:10:05;21.75;;;6.63;;
63693;SDS011;49839;51.798;10.954;2023-11-21T06:12:35;13.35;;;5.07;;
63693;SDS011;49839;51.798;10.954;2023-11-21T06:15:03;16.33;;;6.18;;
63693;SDS011;49839;51.798;10.954;2023-11-21T06:17:31;21.08;;;6.63;;
63693;SDS011;49839;51.798;10.954;2023-11-21T06:20:00;16.55;;;5.75;;
63693;SDS011;49839;51.798;10.954;2023-11-21T06:22:30;14.27;;;5.95;;
63693;SDS011;49839;51.798;10.954;2023-11-21T06:24:59;20.10;;;8.48;;
63693;SDS011;49839;51.798;10.954;2023-11-21T06:27:26;20.08;;;9.02;;
63693;SDS011;49839;51.798;10.954;2023-11-21T06:29:54;22.33;;;8.70;;
63693;SDS011;49839;51.798;10.954;2023-11-21T06:32:21;22.77;;;9.10;;
63693;SDS011;49839;51.798;10.954;2023-11-21T06:34:49;18.40;;;8.25;;
63693;SDS011;49839;51.798;10.954;2023-11-21T06:37:17;19.83;;;8.82;;
63693;SDS011;49839;51.798;10.954;2023-11-21T06:39:47;22.52;;;8.30;;
63693;SDS011;49839;51.798;10.954;2023-11-21T06:42:16;20.33;;;9.05;;
63693;SDS011;49839;51.798;10.954;2023-11-21T06:44:43;19.40;;;9.00;;
63693;SDS011;49839;51.798;10.954;2023-11-21T06:47:11;22.60;;;9.05;;
63693;SDS011;49839;51.798;10.954;2023-11-21T06:49:39;20.15;;;8.55;;
63693;SDS011;49839;51.798;10.954;2023-11-21T06:52:07;17.58;;;8.93;;
63693;SDS011;49839;51.798;10.954;2023-11-21T06:54:34;22.05;;;8.90;;
63693;SDS011;49839;51.798;10.954;2023-11-21T06:57:02;20.98;;;9.02;;
63693;SDS011;49839;51.798;10.954;2023-11-21T06:59:30;22.90;;;9.00;;
63693;SDS011;49839;51.798;10.954;2023-11-21T07:01:58;29.38;;;9.32;;
63693;SDS011;49839;51.798;10.954;2023-11-21T07:04:26;23.27;;;8.63;;
63693;SDS011;49839;51.798;10.954;2023-11-21T07:06:53;21.17;;;8.85;;
63693;SDS011;49839;51.798;10.954;2023-11-21T07:09:21;20.15;;;8.93;;
63693;SDS011;49839;51.798;10.954;2023-11-21T07:11:49;16.52;;;8.32;;
63693;SDS011;49839;51.798;10.954;2023-11-21T07:14:16;21.88;;;9.52;;
63693;SDS011;49839;51.798;10.954;2023-11-21T07:16:47;17.13;;;8.73;;
63693;SDS011;49839;51.798;10.954;2023-11-21T07:19:14;17.23;;;8.88;;
63693;SDS011;49839;51.798;10.954;2023-11-21T07:21:42;23.13;;;9.80;;
63693;SDS011;49839;51.798;10.954;2023-11-21T07:24:09;23.73;;;10.20;;
63693;SDS011;49839;51.798;10.954;2023-11-21T07:26:37;27.20;;;10.35;;
63693;SDS011;49839;51.798;10.954;2023-11-21T07:29:05;25.95;;;10.35;;
63693;SDS011;49839;51.798;10.954;2023-11-21T07:31:33;18.35;;;8.75;;
63693;SDS011;49839;51.798;10.954;2023-11-21T07:34:03;23.85;;;9.43;;
63693;SDS011;49839;51.798;10.954;2023-11-21T07:36:30;23.77;;;11.45;;
63693;SDS011;49839;51.798;10.954;2023-11-21T07:38:57;22.27;;;10.18;;
63693;SDS011;49839;51.798;10.954;2023-11-21T07:41:25;21.42;;;9.95;;
63693;SDS011;49839;51.798;10.954;2023-11-21T07:43:57;17.42;;;9.75;;
63693;SDS011;49839;51.798;10.954;2023-11-21T07:46:25;21.02;;;9.38;;
63693;SDS011;49839;51.798;10.954;2023-11-21T07:48:54;21.80;;;9.60;;
63693;SDS011;49839;51.798;10.954;2023-11-21T07:51:23;15.70;;;8.52;;
63693;SDS011;49839;51.798;10.954;2023-11-21T07:53:50;18.70;;;8.73;;
63693;SDS011;49839;51.798;10.954;2023-11-21T07:56:18;19.17;;;8.50;;
63693;SDS011;49839;51.798;10.954;2023-11-21T07:58:45;15.05;;;8.23;;
63693;SDS011;49839;51.798;10.954;2023-11-21T08:01:13;17.30;;;8.15;;
63693;SDS011;49839;51.798;10.954;2023-11-21T08:03:40;14.25;;;8.25;;
63693;SDS011;49839;51.798;10.954;2023-11-21T08:06:08;15.73;;;7.93;;
63693;SDS011;49839;51.798;10.954;2023-11-21T08:08:37;16.52;;;8.85;;
63693;SDS011;49839;51.798;10.954;2023-11-21T08:11:04;13.55;;;8.45;;
63693;SDS011;49839;51.798;10.954;2023-11-21T08:13:34;15.85;;;7.55;;
63693;SDS011;49839;51.798;10.954;2023-11-21T08:16:02;14.35;;;8.25;;
63693;SDS011;49839;51.798;10.954;2023-11-21T08:18:31;16.10;;;8.05;;
63693;SDS011;49839;51.798;10.954;2023-11-21T08:20:58;15.38;;;7.32;;
63693;SDS011;49839;51.798;10.954;2023-11-21T08:23:26;12.80;;;6.85;;
63693;SDS011;49839;51.798;10.954;2023-11-21T08:25:56;12.27;;;6.95;;
63693;SDS011;49839;51.798;10.954;2023-11-21T08:28:24;2.90;;;1.05;;
63693;SDS011;49839;51.798;10.954;2023-11-21T08:30:52;2.28;;;0.90;;
63693;SDS011;49839;51.798;10.954;2023-11-21T08:33:20;2.97;;;1.20;;
63693;SDS011;49839;51.798;10.954;2023-11-21T08:35:47;2.72;;;1.00;;
63693;SDS011;49839;51.798;10.954;2023-11-21T08:38:15;2.67;;;1.25;;
63693;SDS011;49839;51.798;10.954;2023-11-21T08:40:43;1.83;;;0.85;;
63693;SDS011;49839;51.798;10.954;2023-11-21T08:43:12;1.45;;;0.88;;
63693;SDS011;49839;51.798;10.954;2023-11-21T08:45:42;1.73;;;0.98;;
63693;SDS011;49839;51.798;10.954;2023-11-21T08:48:10;2.70;;;1.23;;
63693;SDS011;49839;51.798;10.954;2023-11-21T08:50:38;5.03;;;1.55;;
63693;SDS011;49839;51.798;10.954;2023-11-21T08:53:06;4.40;;;1.63;;
63693;SDS011;49839;51.798;10.954;2023-11-21T08:55:33;5.25;;;2.60;;
63693;SDS011;49839;51.798;10.954;2023-11-21T08:58:04;3.80;;;2.20;;
63693;SDS011;49839;51.798;10.954;2023-11-21T09:00:34;6.07;;;3.00;;
63693;SDS011;49839;51.798;10.954;2023-11-21T09:03:02;5.53;;;2.83;;
63693;SDS011;49839;51.798;10.954;2023-11-21T09:05:37;5.18;;;2.75;;
63693;SDS011;49839;51.798;10.954;2023-11-21T09:08:05;6.50;;;3.20;;
63693;SDS011;49839;51.798;10.954;2023-11-21T09:10:33;5.03;;;3.05;;
63693;SDS011;49839;51.798;10.954;2023-11-21T09:13:02;6.17;;;3.27;;
63693;SDS011;49839;51.798;10.954;2023-11-21T09:15:29;7.53;;;3.75;;
63693;SDS011;49839;51.798;10.954;2023-11-21T09:17:58;6.25;;;3.20;;
63693;SDS011;49839;51.798;10.954;2023-11-21T09:20:26;8.40;;;4.07;;
63693;SDS011;49839;51.798;10.954;2023-11-21T09:22:53;6.78;;;3.63;;
63693;SDS011;49839;51.798;10.954;2023-11-21T09:25:21;4.65;;;2.50;;
63693;SDS011;49839;51.798;10.954;2023-11-21T09:27:49;7.60;;;3.90;;
63693;SDS011;49839;51.798;10.954;2023-11-21T09:30:16;7.57;;;3.83;;
63693;SDS011;49839;51.798;10.954;2023-11-21T09:32:44;7.28;;;3.83;;
63693;SDS011;49839;51.798;10.954;2023-11-21T09:35:14;7.80;;;3.72;;
63693;SDS011;49839;51.798;10.954;2023-11-21T09:37:42;8.35;;;4.43;;
63693;SDS011;49839;51.798;10.954;2023-11-21T09:40:11;10.55;;;4.97;;
63693;SDS011;49839;51.798;10.954;2023-11-21T09:42:43;8.90;;;4.68;;
63693;SDS011;49839;51.798;10.954;2023-11-21T09:45:15;7.90;;;3.65;;
63693;SDS011;49839;51.798;10.954;2023-11-21T09:47:44;8.32;;;3.90;;
63693;SDS011;49839;51.798;10.954;2023-11-21T09:50:13;10.27;;;4.82;;
63693;SDS011;49839;51.798;10.954;2023-11-21T09:52:45;9.68;;;4.72;;
63693;SDS011;49839;51.798;10.954;2023-11-21T09:55:17;9.15;;;4.25;;
63693;SDS011;49839;51.798;10.954;2023-11-21T09:57:47;8.27;;;4.38;;
63693;SDS011;49839;51.798;10.954;2023-11-21T10:00:15;7.72;;;4.15;;
63693;SDS011;49839;51.798;10.954;2023-11-21T10:02:44;8.25;;;4.43;;
63693;SDS011;49839;51.798;10.954;2023-11-21T10:05:14;12.90;;;5.90;;
63693;SDS011;49839;51.798;10.954;2023-11-21T10:07:43;10.73;;;5.50;;
63693;SDS011;49839;51.798;10.954;2023-11-21T10:10:11;9.30;;;5.32;;
63693;SDS011;49839;51.798;10.954;2023-11-21T10:12:41;11.50;;;5.65;;
63693;SDS011;49839;51.798;10.954;2023-11-21T10:15:10;11.48;;;6.45;;
63693;SDS011;49839;51.798;10.954;2023-11-21T10:17:42;11.85;;;6.53;;
63693;SDS011;49839;51.798;10.954;2023-11-21T10:20:11;11.82;;;6.50;;
63693;SDS011;49839;51.798;10.954;2023-11-21T10:22:41;12.07;;;7.50;;
63693;SDS011;49839;51.798;10.954;2023-11-21T10:25:09;16.52;;;7.57;;
63693;SDS011;49839;51.798;10.954;2023-11-21T10:27:37;16.63;;;8.48;;
63693;SDS011;49839;51.798;10.954;2023-11-21T10:30:06;13.73;;;6.88;;
63693;SDS011;49839;51.798;10.954;2023-11-21T10:32:33;10.45;;;5.80;;
63693;SDS011;49839;51.798;10.954;2023-11-21T10:35:01;10.45;;;5.30;;
63693;SDS011;49839;51.798;10.954;2023-11-21T10:37:33;9.55;;;5.00;;
63693;SDS011;49839;51.798;10.954;2023-11-21T10:40:02;12.82;;;6.40;;
63693;SDS011;49839;51.798;10.954;2023-11-21T10:42:31;9.20;;;4.78;;
63693;SDS011;49839;51.798;10.954;2023-11-21T10:44:59;9.88;;;5.55;;
63693;SDS011;49839;51.798;10.954;2023-11-21T10:47:28;9.40;;;5.60;;
63693;SDS011;49839;51.798;10.954;2023-11-21T10:49:56;10.05;;;5.78;;
63693;SDS011;49839;51.798;10.954;2023-11-21T10:52:26;11.07;;;6.28;;
63693;SDS011;49839;51.798;10.954;2023-11-21T10:57:22;8.00;;;4.50;;
63693;SDS011;49839;51.798;10.954;2023-11-21T10:59:50;10.00;;;5.80;;
63693;SDS011;49839;51.798;10.954;2023-11-21T11:04:48;9.75;;;4.53;;
63693;SDS011;49839;51.798;10.954;2023-11-21T11:07:16;9.48;;;6.05;;
63693;SDS011;49839;51.798;10.954;2023-11-21T11:09:44;9.38;;;5.13;;
63693;SDS011;49839;51.798;10.954;2023-11-21T11:12:13;10.75;;;6.30;;
63693;SDS011;49839;51.798;10.954;2023-11-21T11:14:47;7.85;;;3.58;;
63693;SDS011;49839;51.798;10.954;2023-11-21T11:17:15;7.20;;;3.92;;
63693;SDS011;49839;51.798;10.954;2023-11-21T11:19:46;9.45;;;4.03;;
63693;SDS011;49839;51.798;10.954;2023-11-21T11:22:18;11.30;;;5.95;;
63693;SDS011;49839;51.798;10.954;2023-11-21T11:24:54;9.48;;;5.03;;
63693;SDS011;49839;51.798;10.954;2023-11-21T11:27:27;9.55;;;5.38;;
63693;SDS011;49839;51.798;10.954;2023-11-21T11:30:02;9.77;;;5.15;;
63693;SDS011;49839;51.798;10.954;2023-11-21T11:32:40;10.27;;;5.80;;
63693;SDS011;49839;51.798;10.954;2023-11-21T11:35:14;8.52;;;4.80;;
63693;SDS011;49839;51.798;10.954;2023-11-21T11:37:44;9.98;;;5.95;;
63693;SDS011;49839;51.798;10.954;2023-11-21T11:40:12;9.10;;;5.82;;
63693;SDS011;49839;51.798;10.954;2023-11-21T11:42:39;10.55;;;5.32;;
63693;SDS011;49839;51.798;10.954;2023-11-21T11:45:23;11.32;;;6.03;;
63693;SDS011;49839;51.798;10.954;2023-11-21T11:47:56;10.95;;;5.97;;
63693;SDS011;49839;51.798;10.954;2023-11-21T11:50:24;9.80;;;4.60;;
63693;SDS011;49839;51.798;10.954;2023-11-21T11:52:53;11.00;;;6.05;;
63693;SDS011;49839;51.798;10.954;2023-11-21T11:55:22;9.70;;;5.03;;
63693;SDS011;49839;51.798;10.954;2023-11-21T11:57:51;8.82;;;5.18;;
63693;SDS011;49839;51.798;10.954;2023-11-21T12:00:19;9.63;;;5.40;;
63693;SDS011;49839;51.798;10.954;2023-11-21T12:02:53;10.23;;;5.60;;
63693;SDS011;49839;51.798;10.954;2023-11-21T12:05:21;9.52;;;5.40;;
63693;SDS011;49839;51.798;10.954;2023-11-21T12:07:49;10.27;;;5.03;;
63693;SDS011;49839;51.798;10.954;2023-11-21T12:10:20;7.03;;;3.88;;
63693;SDS011;49839;51.798;10.954;2023-11-21T12:12:49;9.15;;;4.95;;
63693;SDS011;49839;51.798;10.954;2023-11-21T12:15:17;11.38;;;5.60;;
63693;SDS011;49839;51.798;10.954;2023-11-21T12:17:45;8.90;;;5.80;;
63693;SDS011;49839;51.798;10.954;2023-11-21T12:20:15;10.90;;;6.13;;
63693;SDS011;49839;51.798;10.954;2023-11-21T12:22:47;10.73;;;5.22;;
63693;SDS011;49839;51.798;10.954;2023-11-21T12:25:15;8.88;;;5.50;;
63693;SDS011;49839;51.798;10.954;2023-11-21T12:30:12;8.95;;;5.28;;
63693;SDS011;49839;51.798;10.954;2023-11-21T12:32:42;10.07;;;4.70;;
63693;SDS011;49839;51.798;10.954;2023-11-21T12:35:10;9.45;;;5.70;;
63693;SDS011;49839;51.798;10.954;2023-11-21T12:37:39;9.98;;;6.18;;
63693;SDS011;49839;51.798;10.954;2023-11-21T12:40:08;10.65;;;5.70;;
63693;SDS011;49839;51.798;10.954;2023-11-21T12:42:39;12.25;;;6.15;;
63693;SDS011;49839;51.798;10.954;2023-11-21T12:45:09;10.85;;;6.00;;
63693;SDS011;49839;51.798;10.954;2023-11-21T12:47:41;11.45;;;4.97;;
63693;SDS011;49839;51.798;10.954;2023-11-21T12:50:09;11.10;;;5.35;;
63693;SDS011;49839;51.798;10.954;2023-11-21T12:52:42;11.95;;;5.82;;
63693;SDS011;49839;51.798;10.954;2023-11-21T12:55:15;10.23;;;6.10;;
63693;SDS011;49839;51.798;10.954;2023-11-21T12:57:43;8.97;;;5.77;;
63693;SDS011;49839;51.798;10.954;2023-11-21T13:00:11;9.65;;;5.70;;
63693;SDS011;49839;51.798;10.954;2023-11-21T13:02:53;10.23;;;6.85;;
63693;SDS011;49839;51.798;10.954;2023-11-21T13:05:25;11.82;;;6.45;;
63693;SDS011;49839;51.798;10.954;2023-11-21T13:07:53;9.90;;;4.95;;
63693;SDS011;49839;51.798;10.954;2023-11-21T13:10:21;10.05;;;5.75;;
63693;SDS011;49839;51.798;10.954;2023-11-21T13:12:52;10.13;;;6.20;;
63693;SDS011;49839;51.798;10.954;2023-11-21T13:15:20;9.45;;;5.53;;
63693;SDS011;49839;51.798;10.954;2023-11-21T13:17:47;9.95;;;5.72;;
63693;SDS011;49839;51.798;10.954;2023-11-21T13:20:16;10.57;;;5.47;;
63693;SDS011;49839;51.798;10.954;2023-11-21T13:22:47;11.63;;;5.60;;
63693;SDS011;49839;51.798;10.954;2023-11-21T13:25:16;7.50;;;4.03;;
63693;SDS011;49839;51.798;10.954;2023-11-21T13:27:45;9.98;;;5.13;;
63693;SDS011;49839;51.798;10.954;2023-11-21T13:30:13;9.85;;;5.28;;
63693;SDS011;49839;51.798;10.954;2023-11-21T13:32:43;7.60;;;4.40;;
63693;SDS011;49839;51.798;10.954;2023-11-21T13:35:12;11.90;;;5.50;;
63693;SDS011;49839;51.798;10.954;2023-11-21T13:37:47;8.57;;;5.10;;
63693;SDS011;49839;51.798;10.954;2023-11-21T13:40:22;6.25;;;3.30;;
63693;SDS011;49839;51.798;10.954;2023-11-21T13:42:53;8.35;;;4.40;;
63693;SDS011;49839;51.798;10.954;2023-11-21T13:45:21;8.95;;;4.82;;
63693;SDS011;49839;51.798;10.954;2023-11-21T13:47:50;7.88;;;4.50;;
63693;SDS011;49839;51.798;10.954;2023-11-21T13:50:18;8.10;;;4.32;;
63693;SDS011;49839;51.798;10.954;2023-11-21T13:52:51;9.73;;;4.82;;
63693;SDS011;49839;51.798;10.954;2023-11-21T13:55:20;10.02;;;4.43;;
63693;SDS011;49839;51.798;10.954;2023-11-21T13:57:52;6.88;;;4.03;;
63693;SDS011;49839;51.798;10.954;2023-11-21T14:00:20;8.52;;;5.20;;
63693;SDS011;49839;51.798;10.954;2023-11-21T14:03:08;7.35;;;3.85;;
63693;SDS011;49839;51.798;10.954;2023-11-21T14:05:43;7.97;;;4.20;;
63693;SDS011;49839;51.798;10.954;2023-11-21T14:08:13;6.95;;;3.42;;
63693;SDS011;49839;51.798;10.954;2023-11-21T14:10:43;8.40;;;4.88;;
63693;SDS011;49839;51.798;10.954;2023-11-21T14:13:15;10.20;;;5.20;;
63693;SDS011;49839;51.798;10.954;2023-11-21T14:18:12;7.65;;;3.80;;
63693;SDS011;49839;51.798;10.954;2023-11-21T14:20:43;7.85;;;3.85;;
63693;SDS011;49839;51.798;10.954;2023-11-21T14:23:10;8.05;;;4.03;;
63693;SDS011;49839;51.798;10.954;2023-11-21T14:25:38;10.90;;;4.72;;
63693;SDS011;49839;51.798;10.954;2023-11-21T14:30:39;8.05;;;4.03;;
63693;SDS011;49839;51.798;10.954;2023-11-21T14:33:08;4.25;;;2.28;;
63693;SDS011;49839;51.798;10.954;2023-11-21T14:35:37;6.07;;;2.33;;
63693;SDS011;49839;51.798;10.954;2023-11-21T14:38:05;4.00;;;2.13;;
63693;SDS011;49839;51.798;10.954;2023-11-21T14:40:33;4.88;;;2.03;;
63693;SDS011;49839;51.798;10.954;2023-11-21T14:43:02;5.80;;;2.67;;
63693;SDS011;49839;51.798;10.954;2023-11-21T14:45:31;2.90;;;1.70;;
63693;SDS011;49839;51.798;10.954;2023-11-21T14:48:00;4.32;;;2.20;;
63693;SDS011;49839;51.798;10.954;2023-11-21T14:50:33;5.43;;;1.85;;
63693;SDS011;49839;51.798;10.954;2023-11-21T14:53:17;3.83;;;1.58;;